MSC Ines — 3EFZ3 — position and weather

sailwx.info

Track history (hours):
 
Tides and Currents Weather Stations Pressure Air Temp Water Temp Dewpoint Dewpoint Depression Visibility Wind Speed Wind Dir Waves Ship Positions

MSC Ines

Last reported at 2015-Mar-30 21:16 UTC. Time now 2015-May-28 12:06 UTC.
Position N 35°05' E 140°29'.
Warning: this ship's position is 58 days out of date.

Length 349 m; draft 14.8 m.

Type: Ship (hazmat cat A). MMSI: 356112000.

Date/timePositionNaut miles runAvg speedWind from/ knotsBaromVisibWave heightAir tempDewpointWater temp
2015-Mar-30 21:16N 35°05' E 140°29'1520.1
2015-Mar-30 20:31N 34°58' E 140°13'1919.1
2015-Mar-30 19:31N 34°50' E 139°52'1616.3
2015-Mar-30 18:33N 35°04' E 139°43'1313.6
2015-Mar-30 17:33N 35°17' E 139°45'1111.0
2015-Mar-30 16:33N 35°28' E 139°42'1 0.5
2015-Mar-30 15:29N 35°28' E 139°42'0 0.0
2015-Mar-30 14:32N 35°28' E 139°42'0 0.0
2015-Mar-30 13:29N 35°28' E 139°42'0 0.0
2015-Mar-30 12:29N 35°28' E 139°42'0 0.0
2015-Mar-30 11:32N 35°28' E 139°42'0 0.0
2015-Mar-30 10:29N 35°28' E 139°42'0 0.0
2015-Mar-30 09:29N 35°28' E 139°42'0 0.0
2015-Mar-30 08:26N 35°28' E 139°42'0 0.0
2015-Mar-30 07:29N 35°28' E 139°42'0 0.0
2015-Mar-30 06:23N 35°28' E 139°42'0 0.0
2015-Mar-30 05:32N 35°28' E 139°42'0 0.0
2015-Mar-30 04:29N 35°28' E 139°42'0 0.0
2015-Mar-30 03:23N 35°28' E 139°42'0 0.0
2015-Mar-30 02:17N 35°28' E 139°42'0 0.0
2015-Mar-30 00:29N 35°28' E 139°42'0 0.0
2015-Mar-29 23:11N 35°28' E 139°42'0 0.1
2015-Mar-29 22:34N 35°28' E 139°42'5 5.0
2015-Mar-29 21:34N 35°25' E 139°46'1110.7
2015-Mar-29 20:34N 35°14' E 139°47'1111.3
2015-Mar-29 19:33N 35°04' E 139°40'1414.5
2015-Mar-29 18:33N 34°56' E 139°26'8015.0
2015-Mar-29 13:13N 34°07' E 138°08'  
2015-Mar-25 12:21N 30°33' E 122°13'911.3
2015-Mar-25 11:31N 30°37' E 122°03'0 0.1
2015-Mar-25 09:33N 30°38' E 122°03'0 0.0
2015-Mar-25 03:04N 30°38' E 122°03'0 0.0
2015-Mar-25 02:14N 30°38' E 122°03'0 0.0
2015-Mar-25 01:31N 30°38' E 122°03'0 0.0
2015-Mar-25 00:31N 30°38' E 122°03'1 0.6
2015-Mar-24 23:33N 30°37' E 122°04'2 2.3
2015-Mar-24 22:33N 30°36' E 122°06'9 9.4
2015-Mar-24 21:33N 30°34' E 122°17'51 2.6
2015-Mar-24 01:32N 29°43' E 122°26'1313.1
2015-Mar-24 00:33N 29°49' E 122°13'1110.6
2015-Mar-23 23:34N 29°54' E 122°02'0 0.4
2015-Mar-23 22:27N 29°54' E 122°02'0 0.0
2015-Mar-23 20:27N 29°54' E 122°02'0 0.0
2015-Mar-23 19:09N 29°54' E 122°02'0 0.0
2015-Mar-23 18:33N 29°54' E 122°02'0 0.0
2015-Mar-23 17:15N 29°54' E 122°02'0 0.0
2015-Mar-23 16:09N 29°54' E 122°02'0 0.0
2015-Mar-23 15:27N 29°54' E 122°02'0 0.0
2015-Mar-23 14:25N 29°54' E 122°02'0 0.0
2015-Mar-23 13:31N 29°54' E 122°02'0 0.0
2015-Mar-23 10:33N 29°54' E 122°02'0 0.0
2015-Mar-23 09:13N 29°54' E 122°02'0 0.1
2015-Mar-23 08:31N 29°54' E 122°02'3 2.7
2015-Mar-23 07:33N 29°54' E 122°05'8 8.0
2015-Mar-23 06:33N 29°50' E 122°13'1010.0
2015-Mar-23 05:33N 29°44' E 122°22'1514.7
2015-Mar-23 04:33N 29°41' E 122°39'4313.3
2015-Mar-23 01:21N 29°41' E 123°28'1214.2
2015-Mar-23 00:28N 29°40' E 123°42'1414.0
2015-Mar-22 23:30N 29°36' E 123°57'5413.7
2015-Mar-22 19:33N 28°49' E 123°26'33815.3
2015-Mar-21 21:25N 24°34' E 119°17'1517.4
2015-Mar-21 20:33N 24°25' E 119°04'1616.5
2015-Mar-21 19:33N 24°14' E 118°50'3216.0
2015-Mar-21 17:33N 23°54' E 118°23'1716.6
2015-Mar-21 16:33N 23°44' E 118°08'2617.6
2015-Mar-21 15:04N 23°27' E 117°47'21515.8
2015-Mar-21 01:28N 22°17' E 114°06'4 4.0
2015-Mar-21 00:33N 22°20' E 114°07'0 0.4
2015-Mar-20 23:29N 22°20' E 114°07'0 0.0
2015-Mar-20 22:29N 22°20' E 114°07'0 0.0
2015-Mar-20 21:32N 22°20' E 114°07'  
Track history (hours):
 
Tides and Currents Weather Stations Pressure Air Temp Water Temp Dewpoint Dewpoint Depression Visibility Wind Speed Wind Dir Waves Ship Positions

MSC Ines

Last reported at 2015-Mar-30 21:16 UTC. Time now 2015-May-28 12:06 UTC.
Position N 35°05' E 140°29'.
Warning: this ship's position is 58 days out of date.

Length 349 m; draft 14.8 m.

Type: Ship (hazmat cat A). MMSI: 356112000.

Date/timePositionNaut miles runAvg speedWind from/ knotsBaromVisibWave heightAir tempDewpointWater temp
2015-Mar-30 21:16N 35°05' E 140°29'1520.1
2015-Mar-30 20:31N 34°58' E 140°13'1919.1
2015-Mar-30 19:31N 34°50' E 139°52'1616.3
2015-Mar-30 18:33N 35°04' E 139°43'1313.6
2015-Mar-30 17:33N 35°17' E 139°45'1111.0
2015-Mar-30 16:33N 35°28' E 139°42'1 0.5
2015-Mar-30 15:29N 35°28' E 139°42'0 0.0
2015-Mar-30 14:32N 35°28' E 139°42'0 0.0
2015-Mar-30 13:29N 35°28' E 139°42'0 0.0
2015-Mar-30 12:29N 35°28' E 139°42'0 0.0
2015-Mar-30 11:32N 35°28' E 139°42'0 0.0
2015-Mar-30 10:29N 35°28' E 139°42'0 0.0
2015-Mar-30 09:29N 35°28' E 139°42'0 0.0
2015-Mar-30 08:26N 35°28' E 139°42'0 0.0
2015-Mar-30 07:29N 35°28' E 139°42'0 0.0
2015-Mar-30 06:23N 35°28' E 139°42'0 0.0
2015-Mar-30 05:32N 35°28' E 139°42'0 0.0
2015-Mar-30 04:29N 35°28' E 139°42'0 0.0
2015-Mar-30 03:23N 35°28' E 139°42'0 0.0
2015-Mar-30 02:17N 35°28' E 139°42'0 0.0
2015-Mar-30 00:29N 35°28' E 139°42'0 0.0
2015-Mar-29 23:11N 35°28' E 139°42'0 0.1
2015-Mar-29 22:34N 35°28' E 139°42'5 5.0
2015-Mar-29 21:34N 35°25' E 139°46'1110.7
2015-Mar-29 20:34N 35°14' E 139°47'1111.3
2015-Mar-29 19:33N 35°04' E 139°40'1414.5
2015-Mar-29 18:33N 34°56' E 139°26'8015.0
2015-Mar-29 13:13N 34°07' E 138°08'  
2015-Mar-25 12:21N 30°33' E 122°13'911.3
2015-Mar-25 11:31N 30°37' E 122°03'0 0.1
2015-Mar-25 09:33N 30°38' E 122°03'0 0.0
2015-Mar-25 03:04N 30°38' E 122°03'0 0.0
2015-Mar-25 02:14N 30°38' E 122°03'0 0.0
2015-Mar-25 01:31N 30°38' E 122°03'0 0.0
2015-Mar-25 00:31N 30°38' E 122°03'1 0.6
2015-Mar-24 23:33N 30°37' E 122°04'2 2.3
2015-Mar-24 22:33N 30°36' E 122°06'9 9.4
2015-Mar-24 21:33N 30°34' E 122°17'51 2.6
2015-Mar-24 01:32N 29°43' E 122°26'1313.1
2015-Mar-24 00:33N 29°49' E 122°13'1110.6
2015-Mar-23 23:34N 29°54' E 122°02'0 0.4
2015-Mar-23 22:27N 29°54' E 122°02'0 0.0
2015-Mar-23 20:27N 29°54' E 122°02'0 0.0
2015-Mar-23 19:09N 29°54' E 122°02'0 0.0
2015-Mar-23 18:33N 29°54' E 122°02'0 0.0
2015-Mar-23 17:15N 29°54' E 122°02'0 0.0
2015-Mar-23 16:09N 29°54' E 122°02'0 0.0
2015-Mar-23 15:27N 29°54' E 122°02'0 0.0
2015-Mar-23 14:25N 29°54' E 122°02'0 0.0
2015-Mar-23 13:31N 29°54' E 122°02'0 0.0
2015-Mar-23 10:33N 29°54' E 122°02'0 0.0
2015-Mar-23 09:13N 29°54' E 122°02'0 0.1
2015-Mar-23 08:31N 29°54' E 122°02'3 2.7
2015-Mar-23 07:33N 29°54' E 122°05'8 8.0
2015-Mar-23 06:33N 29°50' E 122°13'1010.0
2015-Mar-23 05:33N 29°44' E 122°22'1514.7
2015-Mar-23 04:33N 29°41' E 122°39'4313.3
2015-Mar-23 01:21N 29°41' E 123°28'1214.2
2015-Mar-23 00:28N 29°40' E 123°42'1414.0
2015-Mar-22 23:30N 29°36' E 123°57'5413.7
2015-Mar-22 19:33N 28°49' E 123°26'33815.3
2015-Mar-21 21:25N 24°34' E 119°17'1517.4
2015-Mar-21 20:33N 24°25' E 119°04'1616.5
2015-Mar-21 19:33N 24°14' E 118°50'3216.0
2015-Mar-21 17:33N 23°54' E 118°23'1716.6
2015-Mar-21 16:33N 23°44' E 118°08'2617.6
2015-Mar-21 15:04N 23°27' E 117°47'21515.8
2015-Mar-21 01:28N 22°17' E 114°06'4 4.0
2015-Mar-21 00:33N 22°20' E 114°07'0 0.4
2015-Mar-20 23:29N 22°20' E 114°07'0 0.0
2015-Mar-20 22:29N 22°20' E 114°07'0 0.0
2015-Mar-20 21:32N 22°20' E 114°07'  

Dump ship's entire track history